Time;durP1;ratioP1;P1;durP2;ratioP2;P2;SDS_P1;SDS_P2;PMS_P1;PMS_P2;Temp;Humidity;BMP_temperature;BMP_pressure;BME280_temperature;BME280_humidity;BME280_pressure;Samples;Min_cycle;Max_cycle;Signal;HPM_P1;HPM_P2
2023/03/08 00:01:12;;;;;;;4.22;2.53;;;;;;;2.52;100.00;98908.97;4962951;28;20046;-90
2023/03/08 00:03:52;;;;;;;3.50;2.60;;;;;;;2.26;100.00;98868.16;4950224;28;20115;-89
2023/03/08 00:06:25;;;;;;;5.03;2.97;;;;;;;2.31;100.00;98899.34;4976176;28;20051;-90
2023/03/08 00:09:04;;;;;;;3.88;2.65;;;;;;;2.39;100.00;98903.34;4945530;28;20080;-88
2023/03/08 00:11:52;;;;;;;3.80;2.67;;;;;;;2.48;100.00;98915.22;4976082;28;20038;-92
2023/03/08 00:14:22;;;;;;;4.03;2.78;;;;;;;2.42;100.00;98924.13;4963994;28;20046;-91
2023/03/08 00:17:04;;;;;;;3.65;2.28;;;;;;;2.10;100.00;98869.63;4958630;28;20051;-91
2023/03/08 00:19:58;;;;;;;3.67;2.63;;;;;;;2.37;100.00;98923.44;4971663;28;20066;-91
2023/03/08 00:22:34;;;;;;;4.60;2.90;;;;;;;2.15;100.00;98875.56;4977765;28;20059;-92
2023/03/08 00:25:17;;;;;;;3.67;2.60;;;;;;;1.72;100.00;98801.44;4962472;28;20042;-91
2023/03/08 00:27:45;;;;;;;4.32;2.78;;;;;;;2.16;100.00;98879.88;4988749;28;20114;-93
2023/03/08 00:30:28;;;;;;;3.85;2.60;;;;;;;1.69;100.00;98804.16;4968949;28;20070;-94
2023/03/08 00:33:10;;;;;;;3.35;2.33;;;;;;;2.37;100.00;98926.06;4978326;28;20046;-94
2023/03/08 00:35:43;;;;;;;4.38;3.05;;;;;;;1.99;100.00;98866.56;4958854;28;20039;-93
2023/03/08 00:38:20;;;;;;;3.55;2.53;;;;;;;2.36;100.00;98926.97;4983850;28;20131;-91
2023/03/08 00:40:53;;;;;;;4.40;2.92;;;;;;;2.24;100.00;98919.59;4987892;28;20081;-93
2023/03/08 00:43:28;;;;;;;4.35;3.05;;;;;;;2.04;100.00;98875.09;4986900;28;20043;-91
2023/03/08 00:45:55;;;;;;;4.47;2.88;;;;;;;2.39;100.00;98929.47;4950321;28;20039;-92
2023/03/08 00:48:40;;;;;;;5.65;3.22;;;;;;;2.18;100.00;98896.34;4973107;28;20122;-91
2023/03/08 00:51:13;;;;;;;5.05;3.25;;;;;;;2.27;100.00;98898.59;4923675;28;20053;-92
2023/03/08 00:54:12;;;;;;;5.05;3.25;;;;;;;2.49;100.00;98929.16;4979452;28;20073;-93
2023/03/08 00:56:40;;;;;;;3.88;3.03;;;;;;;2.47;100.00;98922.22;4966391;28;20085;-92
2023/03/08 00:59:11;;;;;;;4.65;3.63;;;;;;;2.42;100.00;98913.69;4979360;28;20047;-93
2023/03/08 01:01:43;;;;;;;4.47;2.90;;;;;;;2.25;100.00;98878.66;4977025;28;20041;-91
2023/03/08 01:04:29;;;;;;;4.30;3.30;;;;;;;2.16;100.00;98858.97;4973734;28;20061;-91
2023/03/08 01:07:22;;;;;;;4.03;3.15;;;;;;;2.24;100.00;98869.97;4981323;28;20085;-92
2023/03/08 01:10:04;;;;;;;5.60;3.60;;;;;;;2.29;100.00;98886.34;4984288;28;20070;-93
2023/03/08 01:12:35;;;;;;;5.00;3.08;;;;;;;2.44;100.00;98905.81;4977075;28;20038;-92
2023/03/08 01:15:19;;;;;;;6.78;3.67;;;;;;;2.48;100.00;98907.38;4964068;28;20050;-93
2023/03/08 01:18:03;;;;;;;4.60;3.65;;;;;;;2.21;100.00;98871.84;4972226;28;20054;-91
2023/03/08 01:20:34;;;;;;;4.35;3.50;;;;;;;2.38;100.00;98895.56;4980009;28;20121;-93
2023/03/08 01:23:04;;;;;;;4.78;3.28;;;;;;;2.24;100.00;98862.13;4946322;28;20066;-92
2023/03/08 01:25:39;;;;;;;;;;;;;;;2.45;100.00;98895.28;4948780;28;20042;-91
2023/03/08 01:28:23;;;;;;;5.40;3.70;;;;;;;2.45;100.00;98900.53;4985565;28;19926;-92
2023/03/08 01:30:51;;;;;;;5.05;3.88;;;;;;;2.49;100.00;98900.41;4979095;28;20132;-94
2023/03/08 01:33:24;;;;;;;5.20;3.95;;;;;;;1.96;100.00;98806.63;4972836;28;20054;-93
2023/03/08 01:36:08;;;;;;;5.07;3.65;;;;;;;2.55;100.00;98897.53;4981012;28;20042;-92
2023/03/08 01:38:42;;;;;;;5.95;3.80;;;;;;;2.41;100.00;98875.41;4987076;28;20404;-92
2023/03/08 01:41:23;;;;;;;6.57;4.28;;;;;;;1.82;100.00;98770.63;4963714;28;20694;-93
2023/03/08 01:43:59;;;;;;;5.13;3.92;;;;;;;2.00;100.00;98803.88;4969590;28;20109;-92
2023/03/08 01:46:35;;;;;;;5.55;4.20;;;;;;;2.55;100.00;98871.41;4980208;28;20054;-90
2023/03/08 01:49:34;;;;;;;6.32;4.25;;;;;;;2.63;100.00;98862.38;5002708;28;20046;-90
2023/03/08 01:52:22;;;;;;;6.20;4.40;;;;;;;2.70;100.00;98855.97;4985964;28;20042;-91
2023/03/08 01:55:11;;;;;;;5.07;3.80;;;;;;;2.70;100.00;98857.75;4982649;28;20046;-92
2023/03/08 01:57:57;;;;;;;5.90;4.07;;;;;;;2.73;100.00;98875.94;4993313;28;20399;-90
2023/03/08 02:00:28;;;;;;;5.95;4.50;;;;;;;2.54;100.00;98833.97;4965958;28;20046;-91
2023/03/08 02:03:13;;;;;;;7.13;4.75;;;;;;;2.54;100.00;98833.13;4972400;28;20042;-90
2023/03/08 02:05:44;;;;;;;7.03;4.80;;;;;;;2.58;100.00;98829.50;4974636;28;20078;-90
2023/03/08 02:08:16;;;;;;;6.70;4.80;;;;;;;2.61;100.00;98834.59;4984973;28;20468;-91
2023/03/08 02:11:01;;;;;;;5.72;4.18;;;;;;;2.69;100.00;98827.28;4982401;28;20097;-91
2023/03/08 02:13:35;;;;;;;7.53;4.90;;;;;;;2.59;100.00;98807.69;4979636;28;20088;-89
2023/03/08 02:16:24;;;;;;;7.75;5.15;;;;;;;2.47;100.00;98780.28;4959869;28;20082;-90
2023/03/08 02:19:19;;;;;;;5.68;4.20;;;;;;;2.78;100.00;98840.00;4985738;28;20085;-90
2023/03/08 02:21:53;;;;;;;9.25;4.90;;;;;;;2.67;100.00;98835.22;4973205;28;20039;-89
2023/03/08 02:24:52;;;;;;;7.78;4.97;;;;;;;2.56;100.00;98819.09;4975676;28;20057;-91
2023/03/08 02:27:34;;;;;;;7.45;5.07;;;;;;;2.54;100.00;98823.53;4995542;28;20047;-93
2023/03/08 02:30:12;;;;;;;7.60;4.90;;;;;;;2.28;100.00;98761.88;4983949;28;20247;-93
2023/03/08 02:32:52;;;;;;;7.82;5.40;;;;;;;2.10;100.00;98750.38;4987020;28;20035;-92
2023/03/08 02:35:35;;;;;;;7.07;4.80;;;;;;;2.37;100.00;98782.38;4968884;28;20525;-92
2023/03/08 02:38:02;;;;;;;6.33;4.63;;;;;;;2.11;100.00;98751.22;4982462;28;20038;-92
2023/03/08 02:40:36;;;;;;;6.43;4.57;;;;;;;2.22;100.00;98769.94;4980670;28;20481;-92
2023/03/08 02:43:04;;;;;;;7.32;5.25;;;;;;;2.14;100.00;98752.88;4967535;28;20038;-92
2023/03/08 02:45:37;;;;;;;6.43;4.32;;;;;;;2.48;100.00;98810.72;4984901;28;20069;-92
2023/03/08 02:48:20;;;;;;;6.43;4.82;;;;;;;2.31;100.00;98771.34;4978883;28;20565;-92
2023/03/08 02:50:50;;;;;;;7.65;5.20;;;;;;;2.59;100.00;98808.53;4945763;28;20039;-93
2023/03/08 02:53:23;;;;;;;6.20;4.75;;;;;;;2.60;100.00;98806.75;4969617;28;20043;-91
2023/03/08 02:55:54;;;;;;;6.68;5.13;;;;;;;2.57;100.00;98805.13;4980655;28;20023;-90
2023/03/08 02:58:26;;;;;;;7.68;5.40;;;;;;;2.61;100.00;98803.25;4992986;28;20031;-88
2023/03/08 03:00:55;;;;;;;9.27;5.45;;;;;;;2.64;100.00;98797.91;4975414;28;20132;-88
2023/03/08 03:03:24;;;;;;;7.72;5.80;;;;;;;2.63;100.00;98785.75;4962136;28;20122;-88
2023/03/08 03:05:58;;;;;;;9.32;5.85;;;;;;;2.60;100.00;98765.81;4970796;28;20058;-88
2023/03/08 03:08:34;;;;;;;8.05;5.35;;;;;;;2.56;100.00;98764.22;4968858;28;20061;-89
2023/03/08 03:11:09;;;;;;;7.97;5.40;;;;;;;2.43;100.00;98745.59;4972473;28;20038;-89
2023/03/08 03:13:45;;;;;;;7.35;5.38;;;;;;;2.68;100.00;98776.78;4974879;28;20050;-89
2023/03/08 03:16:18;;;;;;;7.68;5.35;;;;;;;2.63;100.00;98746.53;4973211;28;20081;-88
2023/03/08 03:18:46;;;;;;;7.65;5.18;;;;;;;2.83;100.00;98767.50;4982655;28;20070;-89
2023/03/08 03:21:13;;;;;;;7.00;5.15;;;;;;;2.79;100.00;98768.53;4979608;28;20045;-88
2023/03/08 03:23:43;;;;;;;6.93;5.22;;;;;;;2.79;100.00;98774.59;4977863;28;20038;-88
2023/03/08 03:26:17;;;;;;;8.70;5.63;;;;;;;2.73;100.00;98777.44;4973635;28;20047;-88
2023/03/08 03:28:58;;;;;;;8.30;5.50;;;;;;;2.67;100.00;98784.72;4991911;28;20319;-88
2023/03/08 03:31:36;;;;;;;6.72;5.15;;;;;;;2.44;100.00;98747.28;4972412;28;20514;-88
2023/03/08 03:34:11;;;;;;;8.82;5.65;;;;;;;2.41;100.00;98733.50;4972895;28;20050;-89
2023/03/08 03:36:45;;;;;;;8.70;6.00;;;;;;;2.46;100.00;98737.63;4962494;28;20094;-91
2023/03/08 03:39:15;;;;;;;7.22;5.10;;;;;;;2.58;100.00;98758.94;4944293;28;20038;-91
2023/03/08 03:41:44;;;;;;;9.07;5.75;;;;;;;2.58;100.00;98753.72;4959903;28;20046;-89
2023/03/08 03:44:15;;;;;;;9.38;6.45;;;;;;;2.63;100.00;98767.44;4951911;28;20531;-91
2023/03/08 03:46:51;;;;;;;7.72;5.97;;;;;;;2.70;100.00;98777.56;4951195;28;20492;-89
2023/03/08 03:49:38;;;;;;;10.05;6.25;;;;;;;2.60;100.00;98755.34;4973088;28;20131;-90
2023/03/08 03:52:19;;;;;;;10.13;6.68;;;;;;;2.76;100.00;98772.09;4967302;28;20066;-89
2023/03/08 03:55:03;;;;;;;9.30;6.75;;;;;;;2.77;100.00;98773.81;4975325;28;20067;-90
2023/03/08 03:57:46;;;;;;;10.55;6.75;;;;;;;2.81;100.00;98771.94;4987117;28;20050;-90
2023/03/08 04:00:15;;;;;;;10.68;6.30;;;;;;;2.86;100.00;98763.88;4991811;28;20049;-89
2023/03/08 04:02:58;;;;;;;10.30;6.85;;;;;;;2.85;100.00;98741.25;4968046;28;20047;-90
2023/03/08 04:05:38;;;;;;;12.98;7.70;;;;;;;2.97;100.00;98741.63;4980565;28;20042;-90
2023/03/08 04:08:14;;;;;;;12.52;7.75;;;;;;;3.17;100.00;98759.03;4978120;28;20055;-90
2023/03/08 04:11:03;;;;;;;12.95;7.97;;;;;;;2.79;100.00;98692.72;4993071;28;20055;-91
2023/03/08 04:14:16;;;;;;;11.60;7.28;;;;;;;3.08;100.00;98746.38;4991572;28;20125;-89
2023/03/08 04:16:49;;;;;;;13.13;8.35;;;;;;;2.98;100.00;98748.53;4975814;28;20070;-90
2023/03/08 04:20:05;;;;;;;13.77;8.07;;;;;;;2.92;100.00;98743.56;4981147;28;20061;-90
2023/03/08 04:23:03;;;;;;;14.38;7.85;;;;;;;2.74;100.00;98734.72;4985202;28;20045;-90
2023/03/08 04:25:48;;;;;;;14.40;8.70;;;;;;;2.66;100.00;98717.69;4987205;28;20061;-89
2023/03/08 04:28:35;;;;;;;14.88;8.63;;;;;;;2.61;100.00;98719.63;4968113;28;20047;-89
2023/03/08 04:31:29;;;;;;;15.88;9.20;;;;;;;2.52;100.00;98699.13;4949704;28;20094;-89
2023/03/08 04:34:17;;;;;;;18.25;10.18;;;;;;;2.71;100.00;98745.31;4971679;28;20046;-89
2023/03/08 04:36:46;;;;;;;16.55;9.32;;;;;;;2.71;100.00;98736.59;4968753;28;20059;-89
2023/03/08 04:39:15;;;;;;;15.80;9.60;;;;;;;2.55;100.00;98704.19;4954216;28;20058;-89
2023/03/08 04:42:03;;;;;;;16.75;9.60;;;;;;;2.56;100.00;98711.97;4968853;28;20043;-88
2023/03/08 04:44:54;;;;;;;16.67;9.20;;;;;;;2.63;100.00;98718.66;4970054;28;20567;-89
2023/03/08 04:47:27;;;;;;;19.90;9.73;;;;;;;2.70;100.00;98724.44;4963972;28;20106;-90
2023/03/08 04:50:53;;;;;;;17.45;9.80;;;;;;;2.69;100.00;98712.28;4966945;28;20083;-91
2023/03/08 04:53:28;;;;;;;17.58;9.88;;;;;;;2.71;100.00;98716.53;4961255;28;20129;-89
2023/03/08 04:56:12;;;;;;;21.20;10.77;;;;;;;2.72;100.00;98712.16;4971799;28;20087;-91
2023/03/08 04:58:40;;;;;;;;;;;;;;;2.70;100.00;98709.63;4991598;28;20038;-90
2023/03/08 05:01:24;;;;;;;17.95;9.73;;;;;;;2.68;100.00;98706.22;4972831;28;19918;-90
2023/03/08 05:04:00;;;;;;;19.20;10.77;;;;;;;2.74;100.00;98705.13;4968268;28;20402;-87
2023/03/08 05:06:29;;;;;;;17.77;10.55;;;;;;;2.75;100.00;98701.59;4958026;28;20126;-89
2023/03/08 05:09:26;;;;;;;21.63;11.70;;;;;;;2.70;100.00;98690.47;4970775;28;20089;-89
2023/03/08 05:11:58;;;;;;;19.65;10.82;;;;;;;2.58;100.00;98667.47;4940087;28;20066;-89
2023/03/08 05:14:42;;;;;;;22.67;11.18;;;;;;;2.50;100.00;98654.75;4968083;28;20043;-88
2023/03/08 05:17:09;;;;;;;20.85;11.30;;;;;;;2.74;100.00;98690.28;4957907;28;20050;-88
2023/03/08 05:19:52;;;;;;;20.95;11.15;;;;;;;2.54;100.00;98647.63;4971461;28;20043;-89
2023/03/08 05:22:21;;;;;;;20.20;11.05;;;;;;;2.77;100.00;98678.84;4936449;28;20051;-90
2023/03/08 05:24:52;;;;;;;21.92;11.15;;;;;;;2.77;100.00;98673.63;4950872;28;20051;-89
2023/03/08 05:27:34;;;;;;;20.00;11.25;;;;;;;2.66;100.00;98665.41;4957416;28;20452;-89
2023/03/08 05:30:04;;;;;;;24.02;11.88;;;;;;;2.57;100.00;98652.72;4955192;28;20074;-88
2023/03/08 05:32:46;;;;;;;16.10;8.97;;;;;;;2.73;100.00;98678.13;4949528;28;20650;-89
2023/03/08 05:35:36;;;;;;;22.73;12.23;;;;;;;2.69;100.00;98676.56;4971075;28;20713;-89
2023/03/08 05:38:10;;;;;;;21.63;12.38;;;;;;;2.35;100.00;98624.91;4972101;28;20435;-88
2023/03/08 05:41:17;;;;;;;21.75;12.77;;;;;;;2.65;100.00;98666.31;4965637;28;20046;-89
2023/03/08 05:44:18;;;;;;;24.63;13.27;;;;;;;2.65;100.00;98653.25;4938106;28;20399;-88
2023/03/08 05:46:54;;;;;;;22.60;13.40;;;;;;;2.54;100.00;98621.50;4963736;28;20058;-89
2023/03/08 05:49:21;;;;;;;22.90;12.45;;;;;;;2.74;100.00;98642.41;4959255;28;20380;-90
2023/03/08 05:52:09;;;;;;;24.55;13.75;;;;;;;2.85;100.00;98640.16;4950931;28;20063;-89
2023/03/08 05:54:40;;;;;;;25.85;14.90;;;;;;;2.85;100.00;98634.94;4961536;28;20047;-89
2023/03/08 05:57:09;;;;;;;25.08;14.02;;;;;;;2.92;100.00;98641.59;4962511;28;20050;-88
2023/03/08 05:59:46;;;;;;;24.45;14.75;;;;;;;3.02;100.00;98642.88;4973161;28;20110;-89
2023/03/08 06:02:36;;;;;;;24.48;14.07;;;;;;;2.92;100.00;98628.53;4927029;28;20039;-90
2023/03/08 06:05:05;;;;;;;27.25;14.30;;;;;;;2.84;100.00;98622.78;4963617;28;20051;-89
2023/03/08 06:07:56;;;;;;;25.90;13.95;;;;;;;2.46;100.00;98565.22;4962329;28;20134;-90
2023/03/08 06:10:58;;;;;;;25.60;14.20;;;;;;;2.90;100.00;98651.28;4945792;28;20039;-90
2023/03/08 06:13:25;;;;;;;27.92;15.27;;;;;;;2.80;100.00;98656.06;4955342;28;20047;-90
2023/03/08 06:15:55;;;;;;;25.52;14.32;;;;;;;2.73;100.00;98662.44;4969395;28;20039;-88
2023/03/08 06:18:43;;;;;;;29.42;14.80;;;;;;;2.75;100.00;98670.22;4965148;28;20042;-90
2023/03/08 06:21:16;;;;;;;25.63;14.30;;;;;;;2.55;100.00;98621.41;4971210;28;20057;-91
2023/03/08 06:23:46;;;;;;;26.30;15.02;;;;;;;2.29;100.00;98549.41;4967891;28;20054;-90
2023/03/08 06:26:22;;;;;;;28.17;15.52;;;;;;;2.73;100.00;98611.94;4939004;29;20062;-89
2023/03/08 06:29:01;;;;;;;33.05;16.10;;;;;;;2.65;100.00;98609.69;4936690;29;20357;-91
2023/03/08 06:31:31;;;;;;;28.42;15.45;;;;;;;2.71;100.00;98635.53;4957662;28;20047;-90
2023/03/08 06:34:03;;;;;;;29.92;14.82;;;;;;;2.65;100.00;98648.03;4961377;28;20087;-90
2023/03/08 06:36:30;;;;;;;28.25;15.55;;;;;;;2.60;100.00;98644.75;4969638;28;20071;-89
2023/03/08 06:39:08;;;;;;;27.30;15.77;;;;;;;2.29;100.00;98588.59;4971048;28;20086;-89
2023/03/08 06:41:41;;;;;;;27.25;14.90;;;;;;;2.49;100.00;98626.06;4977957;28;20082;-92
2023/03/08 06:44:17;;;;;;;26.25;14.60;;;;;;;2.29;100.00;98570.31;4975518;28;20053;-89
2023/03/08 06:46:50;;;;;;;29.08;15.02;;;;;;;2.57;100.00;98608.28;4972632;28;20828;-90
2023/03/08 06:49:19;;;;;;;27.05;14.35;;;;;;;2.85;100.00;98634.06;4969685;28;20121;-91
2023/03/08 06:51:46;;;;;;;26.45;13.82;;;;;;;2.92;100.00;98619.84;4967495;28;20038;-91
2023/03/08 06:54:16;;;;;;;25.48;14.93;;;;;;;2.56;100.00;98538.66;4968802;28;20058;-93
2023/03/08 06:57:01;;;;;;;28.10;14.32;;;;;;;2.34;100.00;98495.22;4987165;28;20030;-92
2023/03/08 06:59:43;;;;;;;23.52;13.68;;;;;;;2.71;100.00;98537.97;4977514;28;20050;-93
2023/03/08 07:02:14;;;;;;;25.88;13.45;;;;;;;3.11;100.00;98611.09;4997429;28;20103;-91
2023/03/08 07:04:47;;;;;;;22.88;13.40;;;;;;;2.43;100.00;98486.97;4979046;28;20364;-91
2023/03/08 07:07:22;;;;;;;28.35;14.05;;;;;;;3.06;100.00;98594.75;4957446;28;20101;-88
2023/03/08 07:09:53;;;;;;;24.20;13.57;;;;;;;3.18;100.00;98604.66;4967945;28;20043;-87
2023/03/08 07:12:21;;;;;;;26.45;14.98;;;;;;;3.17;100.00;98605.56;4978352;28;20082;-87
2023/03/08 07:14:52;;;;;;;24.83;14.77;;;;;;;3.07;100.00;98586.00;4959358;28;20475;-87
2023/03/08 07:17:19;;;;;;;22.95;12.32;;;;;;;3.03;100.00;98571.38;4958391;28;20046;-88
2023/03/08 07:19:55;;;;;;;22.83;13.77;;;;;;;3.12;100.00;98597.13;4967426;28;20046;-87
2023/03/08 07:22:35;;;;;;;23.85;13.75;;;;;;;2.95;100.00;98568.25;4962338;28;20048;-88
2023/03/08 07:25:10;;;;;;;26.02;13.98;;;;;;;2.91;100.00;98581.53;4974959;28;20038;-87
2023/03/08 07:27:46;;;;;;;23.23;13.93;;;;;;;2.90;100.00;98585.91;4958072;28;20115;-87
2023/03/08 07:30:21;;;;;;;27.50;13.88;;;;;;;2.98;100.00;98570.75;4968403;28;20082;-86
2023/03/08 07:32:52;;;;;;;25.73;15.40;;;;;;;2.88;100.00;98539.84;4957202;28;20043;-88
2023/03/08 07:35:22;;;;;;;27.48;15.32;;;;;;;3.01;100.00;98559.28;4956388;28;20149;-87
2023/03/08 07:37:52;;;;;;;25.50;15.32;;;;;;;3.01;100.00;98557.50;4964673;28;20134;-87
2023/03/08 07:40:19;;;;;;;27.27;15.20;;;;;;;2.83;100.00;98520.91;4964991;28;20047;-88
2023/03/08 07:42:47;;;;;;;25.92;13.65;;;;;;;2.97;100.00;98549.91;4968970;28;20043;-87
2023/03/08 07:45:14;;;;;;;24.15;14.68;;;;;;;2.92;100.00;98542.25;4960147;28;20495;-87
2023/03/08 07:47:55;;;;;;;26.17;13.82;;;;;;;2.90;100.00;98533.63;4967267;28;20069;-89
2023/03/08 07:50:43;;;;;;;24.13;13.88;;;;;;;2.90;100.00;98522.31;5086143;27;20666;-88
2023/03/08 07:53:12;;;;;;;27.02;14.27;;;;;;;2.85;100.00;98508.59;5031308;28;20379;-87
2023/03/08 07:55:42;;;;;;;26.33;13.68;;;;;;;2.85;100.00;98508.59;5042389;28;20078;-87
2023/03/08 07:58:20;;;;;;;31.42;14.65;;;;;;;2.62;100.00;98467.84;5042154;28;20058;-86
2023/03/08 08:00:52;;;;;;;29.67;14.80;;;;;;;2.69;100.00;98492.78;5047692;28;20041;-86
2023/03/08 08:03:28;;;;;;;29.77;14.60;;;;;;;2.72;100.00;98488.25;5033355;28;20105;-87
2023/03/08 08:06:05;;;;;;;32.78;15.07;;;;;;;2.52;100.00;98462.19;5040064;28;20059;-86
2023/03/08 08:08:42;;;;;;;24.27;13.90;;;;;;;2.71;100.00;98491.78;5050531;28;20053;-86
2023/03/08 08:11:12;;;;;;;38.30;14.60;;;;;;;2.66;100.00;98485.94;5048076;28;20064;-87
2023/03/08 08:13:41;;;;;;;30.90;14.68;;;;;;;2.50;100.00;98456.19;5028964;28;20532;-89
2023/03/08 08:16:08;;;;;;;34.85;14.15;;;;;;;2.48;100.00;98455.41;5030598;28;20080;-87
2023/03/08 08:18:45;;;;;;;34.67;15.68;;;;;;;2.69;100.00;98482.31;5051332;28;20033;-85
2023/03/08 08:21:15;;;;;;;29.63;15.63;;;;;;;2.63;100.00;98452.09;5042537;28;20080;-87
2023/03/08 08:23:46;;;;;;;30.02;16.60;;;;;;;2.66;100.00;98443.28;5035805;28;20038;-85
2023/03/08 08:26:18;;;;;;;31.10;15.82;;;;;;;2.40;100.00;98405.28;5021899;28;20042;-85
2023/03/08 08:28:47;;;;;;;35.30;16.20;;;;;;;2.58;100.00;98437.53;5021385;28;20042;-83
2023/03/08 08:31:17;;;;;;;31.63;16.97;;;;;;;2.16;100.00;98360.25;5026034;28;20049;-85
2023/03/08 08:33:59;;;;;;;29.38;16.17;;;;;;;2.55;100.00;98435.06;5019773;28;20465;-84
2023/03/08 08:36:31;;;;;;;31.20;15.90;;;;;;;2.59;100.00;98441.84;5021327;28;20098;-85
2023/03/08 08:38:58;;;;;;;28.80;16.38;;;;;;;2.52;100.00;98436.06;5020701;28;20102;-86
2023/03/08 08:41:30;;;;;;;31.73;16.40;;;;;;;2.35;100.00;98420.31;5026936;28;20072;-86
2023/03/08 08:44:08;;;;;;;29.40;15.80;;;;;;;2.44;100.00;98423.34;5015570;28;20045;-86
2023/03/08 08:46:37;;;;;;;30.55;17.05;;;;;;;2.39;100.00;98422.69;5012593;28;20271;-86
2023/03/08 08:49:07;;;;;;;31.50;17.02;;;;;;;2.45;100.00;98426.81;5018931;28;20034;-85
2023/03/08 08:51:35;;;;;;;30.35;16.45;;;;;;;2.40;100.00;98416.56;5031372;28;20068;-85
2023/03/08 08:54:06;;;;;;;26.55;15.27;;;;;;;2.30;100.00;98397.00;5021536;28;20526;-83
2023/03/08 08:56:41;;;;;;;29.77;16.55;;;;;;;2.32;100.00;98402.16;5021419;28;20037;-85
2023/03/08 08:59:10;;;;;;;42.63;18.10;;;;;;;2.25;100.00;98379.84;5031431;28;20054;-84
2023/03/08 09:01:42;;;;;;;42.50;17.48;;;;;;;2.16;100.00;98360.25;5008431;28;20065;-85
2023/03/08 09:04:15;;;;;;;31.65;17.45;;;;;;;2.27;100.00;98376.25;5000824;28;20065;-84
2023/03/08 09:06:42;;;;;;;32.97;16.98;;;;;;;2.24;100.00;98363.34;5005974;28;20037;-86
2023/03/08 09:09:10;;;;;;;28.10;16.00;;;;;;;2.33;100.00;98375.13;4986229;28;20452;-85
2023/03/08 09:11:38;;;;;;;27.00;16.83;;;;;;;2.40;100.00;98386.97;4996979;28;20047;-84
2023/03/08 09:14:20;;;;;;;27.23;15.77;;;;;;;2.36;100.00;98362.75;4988325;28;20488;-85
2023/03/08 09:16:48;;;;;;;27.17;16.08;;;;;;;2.32;100.00;98361.22;4993936;28;20042;-85
2023/03/08 09:19:20;;;;;;;25.95;15.13;;;;;;;2.20;100.00;98329.63;4999816;28;20054;-86
2023/03/08 09:21:47;;;;;;;35.90;16.55;;;;;;;2.42;100.00;98354.66;5011253;28;20097;-84
2023/03/08 09:24:17;;;;;;;41.72;16.80;;;;;;;2.38;100.00;98353.09;5024638;28;20062;-83
2023/03/08 09:26:44;;;;;;;35.08;17.02;;;;;;;2.40;100.00;98353.88;5020486;28;20042;-84
2023/03/08 09:29:12;;;;;;;31.02;15.90;;;;;;;2.49;100.00;98370.06;5009862;28;20038;-85
2023/03/08 09:31:41;;;;;;;28.83;15.68;;;;;;;2.47;100.00;98365.75;5007954;28;20066;-85
2023/03/08 09:34:13;;;;;;;25.92;15.98;;;;;;;2.31;100.00;98340.41;5011957;28;20054;-85
2023/03/08 09:36:41;;;;;;;23.38;14.88;;;;;;;2.11;100.00;98310.84;5006072;28;20057;-84
2023/03/08 09:39:12;;;;;;;24.67;14.43;;;;;;;2.46;100.00;98358.81;5006167;28;20038;-85
2023/03/08 09:41:48;;;;;;;23.48;14.25;;;;;;;2.44;100.00;98362.44;5010587;28;20062;-84
2023/03/08 09:44:23;;;;;;;24.73;15.27;;;;;;;2.37;100.00;98364.47;5010138;28;20057;-84
2023/03/08 09:47:01;;;;;;;27.50;16.50;;;;;;;2.34;100.00;98362.00;5019780;28;20058;-83
2023/03/08 09:49:30;;;;;;;26.05;15.30;;;;;;;2.11;100.00;98310.84;5003102;28;20080;-83
2023/03/08 09:52:20;;;;;;;26.10;16.33;;;;;;;2.10;100.00;98308.28;5009894;28;20101;-87
2023/03/08 09:54:55;;;;;;;24.08;14.98;;;;;;;1.95;100.00;98291.56;5003912;28;20038;-83
2023/03/08 09:57:32;;;;;;;25.52;14.60;;;;;;;2.30;100.00;98338.72;5087016;23;20062;-85
2023/03/08 10:00:20;;;;;;;;;;;;;;;2.39;100.00;98354.78;4968452;28;20047;-84
2023/03/08 10:03:28;;;;;;;26.83;14.32;;;;;;;2.37;100.00;98346.19;4986790;28;19926;-84
2023/03/08 10:06:28;;;;;;;24.15;14.63;;;;;;;2.36;100.00;98341.88;4977660;28;20039;-85
2023/03/08 10:09:06;;;;;;;25.45;14.50;;;;;;;2.29;100.00;98316.13;5000416;28;20102;-85
2023/03/08 10:11:59;;;;;;;26.27;15.27;;;;;;;2.41;100.00;98318.16;4982324;28;20039;-85
2023/03/08 10:14:48;;;;;;;27.65;15.70;;;;;;;2.31;100.00;98288.19;4981243;28;20055;-85
2023/03/08 10:17:56;;;;;;;24.88;15.52;;;;;;;2.46;100.00;98305.72;4981149;28;20053;-84
2023/03/08 10:20:33;;;;;;;26.55;15.65;;;;;;;2.00;100.00;98211.28;5203193;23;20106;-87
2023/03/08 10:23:13;;;;;;;21.63;14.52;;;;;;;2.50;100.00;98275.94;4986493;28;20114;-86
2023/03/08 10:25:47;;;;;;;24.00;15.15;;;;;;;2.37;100.00;98257.38;4983680;28;20078;-83
2023/03/08 10:28:25;;;;;;;28.30;15.50;;;;;;;2.59;100.00;98300.75;4995934;28;20111;-87
2023/03/08 10:31:21;;;;;;;29.52;17.50;;;;;;;2.43;100.00;98272.75;4983438;28;20042;-87
2023/03/08 10:34:14;;;;;;;28.48;17.08;;;;;;;2.54;100.00;98284.44;4998131;28;20050;-85
2023/03/08 10:36:56;;;;;;;30.10;16.23;;;;;;;2.54;100.00;98280.06;4978242;28;20046;-84
2023/03/08 10:39:24;;;;;;;29.80;17.93;;;;;;;2.28;100.00;98244.75;4986956;28;20039;-85
2023/03/08 10:41:58;;;;;;;28.17;17.67;;;;;;;2.34;100.00;98262.75;4999415;28;20038;-84
2023/03/08 10:44:43;;;;;;;28.80;17.65;;;;;;;2.49;100.00;98279.47;4998396;28;20043;-84
2023/03/08 10:47:28;;;;;;;28.23;17.50;;;;;;;2.47;100.00;98260.41;4987089;28;20030;-84
2023/03/08 10:50:29;;;;;;;26.95;17.27;;;;;;;2.54;100.00;98250.50;4979151;28;20320;-86
2023/03/08 10:53:09;;;;;;;29.40;18.13;;;;;;;2.70;100.00;98254.03;4991244;28;20069;-87
2023/03/08 10:55:45;;;;;;;;;;;;;;;2.76;100.00;98246.75;4961091;28;20119;-86
2023/03/08 10:58:35;;;;;;;28.27;17.63;;;;;;;2.81;100.00;98238.69;5000356;28;20467;-86
2023/03/08 11:01:33;;;;;;;28.40;18.05;;;;;;;2.61;100.00;98200.50;4983398;28;20711;-87
2023/03/08 11:04:12;;;;;;;29.65;17.73;;;;;;;2.65;100.00;98222.94;4996270;28;20452;-88
2023/03/08 11:06:41;;;;;;;28.20;17.13;;;;;;;2.26;100.00;98163.03;4981222;28;20066;-87
2023/03/08 11:09:27;;;;;;;29.00;17.83;;;;;;;2.64;100.00;98229.09;4989959;28;20042;-87
2023/03/08 11:11:55;;;;;;;30.25;18.88;;;;;;;2.59;100.00;98219.78;4975579;28;20051;-88
2023/03/08 11:14:24;;;;;;;29.85;18.23;;;;;;;2.35;100.00;98186.09;4981952;28;20110;-86
2023/03/08 11:17:11;;;;;;;;;;;;;;;2.54;100.00;98219.97;4973366;28;20228;-85
2023/03/08 11:20:31;;;;;;;25.77;17.05;;;;;;;2.51;100.00;98211.47;4984760;28;19944;-85
2023/03/08 11:23:29;;;;;;;31.70;18.65;;;;;;;2.52;100.00;98218.41;4961463;28;20039;-88
2023/03/08 11:26:19;;;;;;;29.58;18.65;;;;;;;2.56;100.00;98222.53;4983607;28;20047;-84
2023/03/08 11:28:54;;;;;;;29.25;18.50;;;;;;;2.39;100.00;98200.69;4980922;28;20095;-86
2023/03/08 11:31:30;;;;;;;27.67;17.88;;;;;;;2.62;100.00;98225.69;4989677;28;20109;-83
2023/03/08 11:34:27;;;;;;;29.75;18.58;;;;;;;2.53;100.00;98220.06;4975897;28;20051;-85
2023/03/08 11:37:25;;;;;;;31.98;18.40;;;;;;;2.40;100.00;98167.56;4986862;28;20050;-85
2023/03/08 11:40:07;;;;;;;27.98;18.45;;;;;;;2.63;100.00;98193.41;4976051;28;20134;-87
2023/03/08 11:43:04;;;;;;;31.17;17.95;;;;;;;2.70;100.00;98204.41;4994759;28;20515;-86
2023/03/08 11:46:12;;;;;;;30.13;17.80;;;;;;;2.59;100.00;98183.19;4972198;28;20050;-84
2023/03/08 11:49:16;;;;;;;29.40;18.80;;;;;;;2.71;100.00;98198.25;4994452;28;20051;-85
2023/03/08 11:51:52;;;;;;;30.10;18.23;;;;;;;2.11;100.00;98103.75;4976234;28;20474;-86
2023/03/08 11:55:07;;;;;;;31.67;20.10;;;;;;;2.14;100.00;98110.59;4988303;28;20073;-86
2023/03/08 11:57:42;;;;;;;32.15;20.40;;;;;;;2.54;100.00;98188.63;4976532;28;20054;-87
2023/03/08 12:00:21;;;;;;;33.83;20.33;;;;;;;2.53;100.00;98183.47;4977712;28;20070;-87
2023/03/08 12:02:50;;;;;;;35.25;20.85;;;;;;;2.36;100.00;98153.81;4984754;28;20053;-85
2023/03/08 12:05:39;;;;;;;35.22;21.05;;;;;;;2.58;100.00;98171.03;4967320;28;20049;-83
2023/03/08 12:08:35;;;;;;;34.83;21.08;;;;;;;2.09;100.00;98089.91;5004579;28;20031;-85
2023/03/08 12:11:19;;;;;;;36.30;21.25;;;;;;;2.52;100.00;98138.22;5004740;28;20066;-87
2023/03/08 12:14:24;;;;;;;36.75;22.38;;;;;;;2.83;100.00;98159.25;4983754;28;20054;-86
2023/03/08 12:17:25;;;;;;;32.92;21.33;;;;;;;2.75;100.00;98124.84;4974494;28;20035;-85